sensor_id;sensor_type;location;lat;lon;timestamp;P1;durP1;ratioP1;P2;durP2;ratioP2
37495;SDS011;23346;52.088;4.746;2023-12-14T00:00:30;30.13;;;28.87;;
37495;SDS011;23346;52.088;4.746;2023-12-14T00:02:56;26.87;;;25.77;;
37495;SDS011;23346;52.088;4.746;2023-12-14T00:05:22;31.30;;;30.00;;
37495;SDS011;23346;52.088;4.746;2023-12-14T00:07:48;28.20;;;27.03;;
37495;SDS011;23346;52.088;4.746;2023-12-14T00:10:14;32.77;;;31.37;;
37495;SDS011;23346;52.088;4.746;2023-12-14T00:12:42;32.53;;;31.13;;
37495;SDS011;23346;52.088;4.746;2023-12-14T00:15:09;32.13;;;30.80;;
37495;SDS011;23346;52.088;4.746;2023-12-14T00:17:35;33.60;;;32.20;;
37495;SDS011;23346;52.088;4.746;2023-12-14T00:20:01;35.50;;;34.00;;
37495;SDS011;23346;52.088;4.746;2023-12-14T00:22:28;30.37;;;29.10;;
37495;SDS011;23346;52.088;4.746;2023-12-14T00:24:54;30.73;;;29.47;;
37495;SDS011;23346;52.088;4.746;2023-12-14T00:27:19;29.63;;;28.40;;
37495;SDS011;23346;52.088;4.746;2023-12-14T00:29:45;30.83;;;29.53;;
37495;SDS011;23346;52.088;4.746;2023-12-14T00:32:11;30.17;;;28.90;;
37495;SDS011;23346;52.088;4.746;2023-12-14T00:34:37;30.57;;;29.27;;
37495;SDS011;23346;52.088;4.746;2023-12-14T00:37:03;32.67;;;31.30;;
37495;SDS011;23346;52.088;4.746;2023-12-14T00:39:29;31.27;;;29.97;;
37495;SDS011;23346;52.088;4.746;2023-12-14T00:41:55;28.57;;;27.37;;
37495;SDS011;23346;52.088;4.746;2023-12-14T00:44:21;29.27;;;28.07;;
37495;SDS011;23346;52.088;4.746;2023-12-14T00:46:47;29.87;;;28.63;;
37495;SDS011;23346;52.088;4.746;2023-12-14T00:49:13;28.33;;;27.13;;
37495;SDS011;23346;52.088;4.746;2023-12-14T00:51:39;29.07;;;27.87;;
37495;SDS011;23346;52.088;4.746;2023-12-14T00:54:05;32.73;;;31.37;;
37495;SDS011;23346;52.088;4.746;2023-12-14T00:56:31;28.13;;;26.97;;
37495;SDS011;23346;52.088;4.746;2023-12-14T00:58:57;31.87;;;30.53;;
37495;SDS011;23346;52.088;4.746;2023-12-14T01:01:23;33.53;;;32.13;;
37495;SDS011;23346;52.088;4.746;2023-12-14T01:03:49;30.77;;;29.47;;
37495;SDS011;23346;52.088;4.746;2023-12-14T01:06:15;28.70;;;27.53;;
37495;SDS011;23346;52.088;4.746;2023-12-14T01:08:41;31.40;;;30.10;;
37495;SDS011;23346;52.088;4.746;2023-12-14T01:11:07;31.43;;;30.13;;
37495;SDS011;23346;52.088;4.746;2023-12-14T01:13:33;30.80;;;29.50;;
37495;SDS011;23346;52.088;4.746;2023-12-14T01:15:59;32.00;;;30.70;;
37495;SDS011;23346;52.088;4.746;2023-12-14T01:18:25;29.77;;;28.57;;
37495;SDS011;23346;52.088;4.746;2023-12-14T01:20:51;28.90;;;27.70;;
37495;SDS011;23346;52.088;4.746;2023-12-14T01:23:17;27.63;;;26.50;;
37495;SDS011;23346;52.088;4.746;2023-12-14T01:25:43;26.57;;;25.47;;
37495;SDS011;23346;52.088;4.746;2023-12-14T01:28:09;28.73;;;27.53;;
37495;SDS011;23346;52.088;4.746;2023-12-14T01:30:35;27.80;;;26.63;;
37495;SDS011;23346;52.088;4.746;2023-12-14T01:33:01;30.03;;;28.77;;
37495;SDS011;23346;52.088;4.746;2023-12-14T01:35:27;28.20;;;27.00;;
37495;SDS011;23346;52.088;4.746;2023-12-14T01:37:54;27.93;;;26.77;;
37495;SDS011;23346;52.088;4.746;2023-12-14T01:40:20;29.93;;;28.70;;
37495;SDS011;23346;52.088;4.746;2023-12-14T01:42:46;29.53;;;28.30;;
37495;SDS011;23346;52.088;4.746;2023-12-14T01:45:12;30.27;;;29.00;;
37495;SDS011;23346;52.088;4.746;2023-12-14T01:47:41;30.00;;;28.77;;
37495;SDS011;23346;52.088;4.746;2023-12-14T01:50:07;27.87;;;26.70;;
37495;SDS011;23346;52.088;4.746;2023-12-14T01:52:33;27.33;;;26.23;;
37495;SDS011;23346;52.088;4.746;2023-12-14T01:54:59;33.63;;;32.13;;
37495;SDS011;23346;52.088;4.746;2023-12-14T01:57:25;27.93;;;26.73;;
37495;SDS011;23346;52.088;4.746;2023-12-14T01:59:51;30.20;;;28.90;;
37495;SDS011;23346;52.088;4.746;2023-12-14T02:02:17;31.33;;;29.73;;
37495;SDS011;23346;52.088;4.746;2023-12-14T02:04:43;29.93;;;28.70;;
37495;SDS011;23346;52.088;4.746;2023-12-14T02:07:09;28.87;;;27.63;;
37495;SDS011;23346;52.088;4.746;2023-12-14T02:09:35;45.23;;;43.27;;
37495;SDS011;23346;52.088;4.746;2023-12-14T02:12:01;29.17;;;27.97;;
37495;SDS011;23346;52.088;4.746;2023-12-14T02:14:27;53.50;;;50.57;;
37495;SDS011;23346;52.088;4.746;2023-12-14T02:16:53;36.37;;;34.03;;
37495;SDS011;23346;52.088;4.746;2023-12-14T02:19:19;32.53;;;31.13;;
37495;SDS011;23346;52.088;4.746;2023-12-14T02:21:45;27.30;;;26.17;;
37495;SDS011;23346;52.088;4.746;2023-12-14T02:24:11;40.07;;;37.90;;
37495;SDS011;23346;52.088;4.746;2023-12-14T02:26:37;27.97;;;26.80;;
37495;SDS011;23346;52.088;4.746;2023-12-14T02:29:02;31.63;;;30.30;;
37495;SDS011;23346;52.088;4.746;2023-12-14T02:31:28;26.60;;;25.43;;
37495;SDS011;23346;52.088;4.746;2023-12-14T02:33:54;39.07;;;37.40;;
37495;SDS011;23346;52.088;4.746;2023-12-14T02:36:20;36.47;;;34.80;;
37495;SDS011;23346;52.088;4.746;2023-12-14T02:38:46;28.43;;;27.23;;
37495;SDS011;23346;52.088;4.746;2023-12-14T02:41:12;38.23;;;36.53;;
37495;SDS011;23346;52.088;4.746;2023-12-14T02:43:38;71.90;;;68.20;;
37495;SDS011;23346;52.088;4.746;2023-12-14T02:46:05;31.53;;;30.23;;
37495;SDS011;23346;52.088;4.746;2023-12-14T02:48:31;35.47;;;33.97;;
37495;SDS011;23346;52.088;4.746;2023-12-14T02:50:57;54.83;;;52.20;;
37495;SDS011;23346;52.088;4.746;2023-12-14T02:53:25;31.80;;;30.50;;
37495;SDS011;23346;52.088;4.746;2023-12-14T02:55:51;33.37;;;31.97;;
37495;SDS011;23346;52.088;4.746;2023-12-14T02:58:18;29.07;;;27.87;;
37495;SDS011;23346;52.088;4.746;2023-12-14T03:00:44;45.97;;;43.97;;
37495;SDS011;23346;52.088;4.746;2023-12-14T03:03:10;32.03;;;30.67;;
37495;SDS011;23346;52.088;4.746;2023-12-14T03:05:36;41.80;;;40.00;;
37495;SDS011;23346;52.088;4.746;2023-12-14T03:08:02;34.20;;;32.73;;
37495;SDS011;23346;52.088;4.746;2023-12-14T03:10:28;28.70;;;27.50;;
37495;SDS011;23346;52.088;4.746;2023-12-14T03:12:54;32.17;;;30.83;;
37495;SDS011;23346;52.088;4.746;2023-12-14T03:15:20;40.80;;;39.07;;
37495;SDS011;23346;52.088;4.746;2023-12-14T03:17:47;43.33;;;41.47;;
37495;SDS011;23346;52.088;4.746;2023-12-14T03:20:13;32.63;;;31.23;;
37495;SDS011;23346;52.088;4.746;2023-12-14T03:22:39;30.50;;;29.20;;
37495;SDS011;23346;52.088;4.746;2023-12-14T03:25:05;33.63;;;32.03;;
37495;SDS011;23346;52.088;4.746;2023-12-14T03:27:31;44.33;;;42.40;;
37495;SDS011;23346;52.088;4.746;2023-12-14T03:29:57;27.37;;;26.27;;
37495;SDS011;23346;52.088;4.746;2023-12-14T03:32:23;32.00;;;30.67;;
37495;SDS011;23346;52.088;4.746;2023-12-14T03:34:49;29.00;;;27.80;;
37495;SDS011;23346;52.088;4.746;2023-12-14T03:37:15;33.17;;;31.67;;
37495;SDS011;23346;52.088;4.746;2023-12-14T03:39:41;60.40;;;57.60;;
37495;SDS011;23346;52.088;4.746;2023-12-14T03:42:07;34.20;;;32.77;;
37495;SDS011;23346;52.088;4.746;2023-12-14T03:44:33;36.77;;;35.23;;
37495;SDS011;23346;52.088;4.746;2023-12-14T03:46:59;35.40;;;33.90;;
37495;SDS011;23346;52.088;4.746;2023-12-14T03:49:25;35.67;;;34.13;;
37495;SDS011;23346;52.088;4.746;2023-12-14T03:51:51;33.80;;;32.40;;
37495;SDS011;23346;52.088;4.746;2023-12-14T03:54:17;59.93;;;57.30;;
37495;SDS011;23346;52.088;4.746;2023-12-14T03:56:43;33.47;;;32.07;;
37495;SDS011;23346;52.088;4.746;2023-12-14T03:59:09;38.20;;;36.60;;
37495;SDS011;23346;52.088;4.746;2023-12-14T04:01:35;35.37;;;33.87;;
37495;SDS011;23346;52.088;4.746;2023-12-14T04:04:04;84.70;;;80.63;;
37495;SDS011;23346;52.088;4.746;2023-12-14T04:06:30;39.50;;;37.80;;
37495;SDS011;23346;52.088;4.746;2023-12-14T04:08:56;80.17;;;76.63;;
37495;SDS011;23346;52.088;4.746;2023-12-14T04:11:22;68.00;;;64.67;;
37495;SDS011;23346;52.088;4.746;2023-12-14T04:13:49;65.63;;;62.30;;
37495;SDS011;23346;52.088;4.746;2023-12-14T04:16:21;56.13;;;53.70;;
37495;SDS011;23346;52.088;4.746;2023-12-14T04:18:48;47.00;;;45.00;;
37495;SDS011;23346;52.088;4.746;2023-12-14T04:21:14;46.10;;;44.10;;
37495;SDS011;23346;52.088;4.746;2023-12-14T04:23:40;55.23;;;52.83;;
37495;SDS011;23346;52.088;4.746;2023-12-14T04:26:06;67.10;;;64.10;;
37495;SDS011;23346;52.088;4.746;2023-12-14T04:28:34;56.10;;;53.67;;
37495;SDS011;23346;52.088;4.746;2023-12-14T04:31:00;71.90;;;68.77;;
37495;SDS011;23346;52.088;4.746;2023-12-14T04:33:26;107.50;;;102.50;;
37495;SDS011;23346;52.088;4.746;2023-12-14T04:35:52;57.73;;;55.23;;
37495;SDS011;23346;52.088;4.746;2023-12-14T04:38:18;60.20;;;57.60;;
37495;SDS011;23346;52.088;4.746;2023-12-14T04:40:44;70.93;;;67.87;;
37495;SDS011;23346;52.088;4.746;2023-12-14T04:43:10;66.10;;;63.20;;
37495;SDS011;23346;52.088;4.746;2023-12-14T04:45:37;64.73;;;61.93;;
37495;SDS011;23346;52.088;4.746;2023-12-14T04:48:03;56.53;;;53.80;;
37495;SDS011;23346;52.088;4.746;2023-12-14T04:50:29;60.63;;;58.00;;
37495;SDS011;23346;52.088;4.746;2023-12-14T04:52:55;62.87;;;60.17;;
37495;SDS011;23346;52.088;4.746;2023-12-14T04:55:21;74.10;;;70.67;;
37495;SDS011;23346;52.088;4.746;2023-12-14T04:57:47;54.67;;;52.30;;
37495;SDS011;23346;52.088;4.746;2023-12-14T05:00:14;74.03;;;70.80;;
37495;SDS011;23346;52.088;4.746;2023-12-14T05:02:40;65.17;;;62.30;;
37495;SDS011;23346;52.088;4.746;2023-12-14T05:05:06;61.83;;;59.13;;
37495;SDS011;23346;52.088;4.746;2023-12-14T05:07:32;66.37;;;63.47;;
37495;SDS011;23346;52.088;4.746;2023-12-14T05:09:58;93.30;;;89.07;;
37495;SDS011;23346;52.088;4.746;2023-12-14T05:12:24;94.10;;;89.87;;
37495;SDS011;23346;52.088;4.746;2023-12-14T05:14:52;116.47;;;111.30;;
37495;SDS011;23346;52.088;4.746;2023-12-14T05:17:18;88.10;;;84.23;;
37495;SDS011;23346;52.088;4.746;2023-12-14T05:19:44;85.00;;;80.87;;
37495;SDS011;23346;52.088;4.746;2023-12-14T05:22:11;102.73;;;98.20;;
37495;SDS011;23346;52.088;4.746;2023-12-14T05:24:37;83.20;;;79.53;;
37495;SDS011;23346;52.088;4.746;2023-12-14T05:27:03;63.73;;;60.93;;
37495;SDS011;23346;52.088;4.746;2023-12-14T05:29:29;117.47;;;112.20;;
37495;SDS011;23346;52.088;4.746;2023-12-14T05:31:56;74.93;;;71.63;;
37495;SDS011;23346;52.088;4.746;2023-12-14T05:34:22;74.13;;;70.90;;
37495;SDS011;23346;52.088;4.746;2023-12-14T05:36:48;77.57;;;74.20;;
37495;SDS011;23346;52.088;4.746;2023-12-14T05:39:14;74.23;;;70.97;;
37495;SDS011;23346;52.088;4.746;2023-12-14T05:41:40;64.17;;;61.37;;
37495;SDS011;23346;52.088;4.746;2023-12-14T05:44:07;71.10;;;68.00;;
37495;SDS011;23346;52.088;4.746;2023-12-14T05:46:33;64.03;;;61.23;;
37495;SDS011;23346;52.088;4.746;2023-12-14T05:48:59;76.03;;;72.73;;
37495;SDS011;23346;52.088;4.746;2023-12-14T05:51:28;83.17;;;79.57;;
37495;SDS011;23346;52.088;4.746;2023-12-14T05:53:54;91.63;;;87.60;;
37495;SDS011;23346;52.088;4.746;2023-12-14T05:56:20;83.33;;;79.70;;
37495;SDS011;23346;52.088;4.746;2023-12-14T05:58:46;74.73;;;71.47;;
37495;SDS011;23346;52.088;4.746;2023-12-14T06:01:13;83.60;;;79.97;;
37495;SDS011;23346;52.088;4.746;2023-12-14T06:03:39;62.20;;;59.50;;
37495;SDS011;23346;52.088;4.746;2023-12-14T06:06:05;76.17;;;72.83;;
37495;SDS011;23346;52.088;4.746;2023-12-14T06:08:31;77.03;;;73.60;;
37495;SDS011;23346;52.088;4.746;2023-12-14T06:10:57;63.10;;;60.20;;
37495;SDS011;23346;52.088;4.746;2023-12-14T06:13:23;82.27;;;78.67;;
37495;SDS011;23346;52.088;4.746;2023-12-14T06:15:49;112.37;;;107.33;;
37495;SDS011;23346;52.088;4.746;2023-12-14T06:18:15;86.63;;;82.83;;
37495;SDS011;23346;52.088;4.746;2023-12-14T06:20:41;121.23;;;115.87;;
37495;SDS011;23346;52.088;4.746;2023-12-14T06:23:07;119.20;;;113.87;;
37495;SDS011;23346;52.088;4.746;2023-12-14T06:25:33;122.90;;;117.47;;
37495;SDS011;23346;52.088;4.746;2023-12-14T06:27:59;111.47;;;106.30;;
37495;SDS011;23346;52.088;4.746;2023-12-14T06:30:25;123.13;;;117.63;;
37495;SDS011;23346;52.088;4.746;2023-12-14T06:32:51;106.30;;;101.63;;
37495;SDS011;23346;52.088;4.746;2023-12-14T06:35:17;134.23;;;128.23;;
37495;SDS011;23346;52.088;4.746;2023-12-14T06:37:43;107.53;;;102.77;;
37495;SDS011;23346;52.088;4.746;2023-12-14T06:40:09;127.77;;;121.83;;
37495;SDS011;23346;52.088;4.746;2023-12-14T06:42:35;114.53;;;109.43;;
37495;SDS011;23346;52.088;4.746;2023-12-14T06:45:02;132.00;;;126.10;;
37495;SDS011;23346;52.088;4.746;2023-12-14T06:47:28;117.33;;;112.13;;
37495;SDS011;23346;52.088;4.746;2023-12-14T06:49:54;132.00;;;126.17;;
37495;SDS011;23346;52.088;4.746;2023-12-14T06:52:22;105.30;;;100.57;;
37495;SDS011;23346;52.088;4.746;2023-12-14T06:54:48;135.23;;;129.20;;
37495;SDS011;23346;52.088;4.746;2023-12-14T06:57:14;123.90;;;118.43;;
37495;SDS011;23346;52.088;4.746;2023-12-14T06:59:40;121.80;;;116.40;;
37495;SDS011;23346;52.088;4.746;2023-12-14T07:02:06;123.47;;;117.97;;
37495;SDS011;23346;52.088;4.746;2023-12-14T07:04:32;122.57;;;117.17;;
37495;SDS011;23346;52.088;4.746;2023-12-14T07:06:58;125.30;;;119.77;;
37495;SDS011;23346;52.088;4.746;2023-12-14T07:09:24;118.73;;;113.53;;
37495;SDS011;23346;52.088;4.746;2023-12-14T07:11:51;125.33;;;119.77;;
37495;SDS011;23346;52.088;4.746;2023-12-14T07:14:17;117.67;;;112.47;;
37495;SDS011;23346;52.088;4.746;2023-12-14T07:16:44;120.83;;;115.53;;
37495;SDS011;23346;52.088;4.746;2023-12-14T07:19:10;137.03;;;130.83;;
37495;SDS011;23346;52.088;4.746;2023-12-14T07:21:36;138.37;;;132.20;;
37495;SDS011;23346;52.088;4.746;2023-12-14T07:24:03;181.53;;;173.30;;
37495;SDS011;23346;52.088;4.746;2023-12-14T07:26:28;174.63;;;166.73;;
37495;SDS011;23346;52.088;4.746;2023-12-14T07:28:54;170.00;;;162.30;;
37495;SDS011;23346;52.088;4.746;2023-12-14T07:31:20;180.60;;;172.47;;
37495;SDS011;23346;52.088;4.746;2023-12-14T07:33:46;173.53;;;165.70;;
37495;SDS011;23346;52.088;4.746;2023-12-14T07:36:12;168.17;;;160.43;;
37495;SDS011;23346;52.088;4.746;2023-12-14T07:38:38;181.90;;;173.73;;
37495;SDS011;23346;52.088;4.746;2023-12-14T07:41:04;176.83;;;168.83;;
37495;SDS011;23346;52.088;4.746;2023-12-14T07:43:31;165.70;;;158.20;;
37495;SDS011;23346;52.088;4.746;2023-12-14T07:45:57;171.47;;;163.73;;
37495;SDS011;23346;52.088;4.746;2023-12-14T07:48:23;170.50;;;162.80;;
37495;SDS011;23346;52.088;4.746;2023-12-14T07:50:49;175.73;;;167.80;;
37495;SDS011;23346;52.088;4.746;2023-12-14T07:53:16;164.80;;;157.40;;
37495;SDS011;23346;52.088;4.746;2023-12-14T07:55:42;168.70;;;161.10;;
37495;SDS011;23346;52.088;4.746;2023-12-14T07:58:08;168.27;;;160.67;;
37495;SDS011;23346;52.088;4.746;2023-12-14T08:00:34;164.43;;;157.03;;
37495;SDS011;23346;52.088;4.746;2023-12-14T08:03:00;152.87;;;146.03;;
37495;SDS011;23346;52.088;4.746;2023-12-14T08:05:26;149.53;;;142.83;;
37495;SDS011;23346;52.088;4.746;2023-12-14T08:07:52;150.93;;;144.17;;
37495;SDS011;23346;52.088;4.746;2023-12-14T08:10:18;141.27;;;134.97;;
37495;SDS011;23346;52.088;4.746;2023-12-14T08:12:44;144.40;;;138.00;;
37495;SDS011;23346;52.088;4.746;2023-12-14T08:15:12;138.07;;;131.90;;
37495;SDS011;23346;52.088;4.746;2023-12-14T08:17:38;142.53;;;136.20;;
37495;SDS011;23346;52.088;4.746;2023-12-14T08:20:04;133.90;;;127.97;;
37495;SDS011;23346;52.088;4.746;2023-12-14T08:22:33;133.53;;;127.60;;
37495;SDS011;23346;52.088;4.746;2023-12-14T08:25:00;132.70;;;126.83;;
37495;SDS011;23346;52.088;4.746;2023-12-14T08:27:25;128.53;;;122.83;;
37495;SDS011;23346;52.088;4.746;2023-12-14T08:29:51;129.50;;;123.80;;
37495;SDS011;23346;52.088;4.746;2023-12-14T08:32:17;125.70;;;120.13;;
37495;SDS011;23346;52.088;4.746;2023-12-14T08:34:44;122.23;;;116.83;;
37495;SDS011;23346;52.088;4.746;2023-12-14T08:37:10;120.63;;;115.33;;
37495;SDS011;23346;52.088;4.746;2023-12-14T08:39:36;120.07;;;114.77;;
37495;SDS011;23346;52.088;4.746;2023-12-14T08:42:02;127.30;;;121.70;;
37495;SDS011;23346;52.088;4.746;2023-12-14T08:44:28;131.07;;;125.27;;
37495;SDS011;23346;52.088;4.746;2023-12-14T08:46:54;127.73;;;122.07;;
37495;SDS011;23346;52.088;4.746;2023-12-14T08:49:20;132.20;;;126.33;;
37495;SDS011;23346;52.088;4.746;2023-12-14T08:51:48;127.73;;;122.13;;
37495;SDS011;23346;52.088;4.746;2023-12-14T08:54:14;130.20;;;124.43;;
37495;SDS011;23346;52.088;4.746;2023-12-14T08:56:40;134.80;;;128.80;;
37495;SDS011;23346;52.088;4.746;2023-12-14T08:59:06;126.90;;;121.23;;
37495;SDS011;23346;52.088;4.746;2023-12-14T09:01:32;145.90;;;139.40;;
37495;SDS011;23346;52.088;4.746;2023-12-14T09:03:58;134.70;;;128.73;;
37495;SDS011;23346;52.088;4.746;2023-12-14T09:06:25;133.23;;;127.33;;
37495;SDS011;23346;52.088;4.746;2023-12-14T09:08:51;172.00;;;164.27;;
37495;SDS011;23346;52.088;4.746;2023-12-14T09:11:17;167.73;;;160.23;;
37495;SDS011;23346;52.088;4.746;2023-12-14T09:13:43;170.83;;;163.17;;
37495;SDS011;23346;52.088;4.746;2023-12-14T09:16:09;160.67;;;153.47;;
37495;SDS011;23346;52.088;4.746;2023-12-14T09:18:35;183.33;;;175.10;;
37495;SDS011;23346;52.088;4.746;2023-12-14T09:21:02;179.33;;;171.30;;
37495;SDS011;23346;52.088;4.746;2023-12-14T09:23:29;155.47;;;148.53;;
37495;SDS011;23346;52.088;4.746;2023-12-14T09:25:55;192.40;;;183.80;;
37495;SDS011;23346;52.088;4.746;2023-12-14T09:28:21;160.47;;;153.27;;
37495;SDS011;23346;52.088;4.746;2023-12-14T09:30:47;172.17;;;164.40;;
37495;SDS011;23346;52.088;4.746;2023-12-14T09:33:13;182.50;;;174.27;;
37495;SDS011;23346;52.088;4.746;2023-12-14T09:35:39;158.50;;;151.40;;
37495;SDS011;23346;52.088;4.746;2023-12-14T09:38:06;176.00;;;168.10;;
37495;SDS011;23346;52.088;4.746;2023-12-14T09:40:33;177.97;;;170.00;;
37495;SDS011;23346;52.088;4.746;2023-12-14T09:42:59;164.87;;;157.47;;
37495;SDS011;23346;52.088;4.746;2023-12-14T09:45:29;163.10;;;155.73;;
37495;SDS011;23346;52.088;4.746;2023-12-14T09:47:59;153.37;;;146.47;;
37495;SDS011;23346;52.088;4.746;2023-12-14T09:50:26;163.97;;;156.60;;
37495;SDS011;23346;52.088;4.746;2023-12-14T09:52:52;158.97;;;151.83;;
37495;SDS011;23346;52.088;4.746;2023-12-14T09:55:18;156.93;;;149.90;;
37495;SDS011;23346;52.088;4.746;2023-12-14T09:57:44;154.07;;;147.13;;
37495;SDS011;23346;52.088;4.746;2023-12-14T10:00:10;157.27;;;150.23;;
37495;SDS011;23346;52.088;4.746;2023-12-14T10:02:39;152.57;;;145.70;;
37495;SDS011;23346;52.088;4.746;2023-12-14T10:05:06;146.43;;;139.90;;
37495;SDS011;23346;52.088;4.746;2023-12-14T10:07:35;148.50;;;141.83;;
37495;SDS011;23346;52.088;4.746;2023-12-14T10:10:10;147.07;;;140.50;;
37495;SDS011;23346;52.088;4.746;2023-12-14T10:12:51;147.67;;;141.07;;
37495;SDS011;23346;52.088;4.746;2023-12-14T10:15:18;148.80;;;142.13;;
37495;SDS011;23346;52.088;4.746;2023-12-14T10:17:44;144.13;;;137.70;;
37495;SDS011;23346;52.088;4.746;2023-12-14T10:20:18;151.43;;;144.63;;
37495;SDS011;23346;52.088;4.746;2023-12-14T10:22:46;153.57;;;146.67;;
37495;SDS011;23346;52.088;4.746;2023-12-14T10:25:14;153.73;;;146.87;;
37495;SDS011;23346;52.088;4.746;2023-12-14T10:27:40;149.50;;;142.80;;
37495;SDS011;23346;52.088;4.746;2023-12-14T10:30:09;149.17;;;142.47;;
37495;SDS011;23346;52.088;4.746;2023-12-14T10:32:37;127.93;;;122.03;;
37495;SDS011;23346;52.088;4.746;2023-12-14T10:35:04;118.30;;;113.07;;
37495;SDS011;23346;52.088;4.746;2023-12-14T10:37:31;125.87;;;120.30;;
37495;SDS011;23346;52.088;4.746;2023-12-14T10:39:57;94.17;;;90.03;;
37495;SDS011;23346;52.088;4.746;2023-12-14T10:42:25;79.50;;;76.00;;
37495;SDS011;23346;52.088;4.746;2023-12-14T10:44:52;91.30;;;87.30;;
37495;SDS011;23346;52.088;4.746;2023-12-14T10:47:20;89.90;;;86.00;;
37495;SDS011;23346;52.088;4.746;2023-12-14T10:49:46;85.00;;;81.30;;
37495;SDS011;23346;52.088;4.746;2023-12-14T10:52:15;81.20;;;77.70;;
37495;SDS011;23346;52.088;4.746;2023-12-14T10:54:42;67.37;;;64.40;;
37495;SDS011;23346;52.088;4.746;2023-12-14T10:57:09;58.10;;;55.60;;
37495;SDS011;23346;52.088;4.746;2023-12-14T10:59:35;51.53;;;49.33;;
37495;SDS011;23346;52.088;4.746;2023-12-14T11:02:06;50.93;;;48.73;;
37495;SDS011;23346;52.088;4.746;2023-12-14T11:04:57;49.53;;;47.43;;
37495;SDS011;23346;52.088;4.746;2023-12-14T11:10:06;55.47;;;53.07;;
37495;SDS011;23346;52.088;4.746;2023-12-14T11:12:33;54.67;;;52.30;;
37495;SDS011;23346;52.088;4.746;2023-12-14T11:14:59;58.10;;;55.60;;
37495;SDS011;23346;52.088;4.746;2023-12-14T11:17:25;51.37;;;49.17;;
37495;SDS011;23346;52.088;4.746;2023-12-14T11:19:54;55.30;;;52.90;;
37495;SDS011;23346;52.088;4.746;2023-12-14T11:22:24;52.77;;;50.47;;
37495;SDS011;23346;52.088;4.746;2023-12-14T11:24:52;53.23;;;50.93;;
37495;SDS011;23346;52.088;4.746;2023-12-14T11:27:25;41.83;;;40.03;;
37495;SDS011;23346;52.088;4.746;2023-12-14T11:29:53;43.70;;;41.80;;
37495;SDS011;23346;52.088;4.746;2023-12-14T11:32:19;42.67;;;40.87;;
37495;SDS011;23346;52.088;4.746;2023-12-14T11:34:46;38.17;;;36.57;;
37495;SDS011;23346;52.088;4.746;2023-12-14T11:37:12;32.23;;;30.83;;
37495;SDS011;23346;52.088;4.746;2023-12-14T11:39:38;33.13;;;31.73;;
37495;SDS011;23346;52.088;4.746;2023-12-14T11:42:05;33.77;;;32.37;;
37495;SDS011;23346;52.088;4.746;2023-12-14T11:44:36;37.13;;;35.53;;
37495;SDS011;23346;52.088;4.746;2023-12-14T11:47:02;33.47;;;32.07;;
37495;SDS011;23346;52.088;4.746;2023-12-14T11:49:28;33.70;;;32.30;;
37495;SDS011;23346;52.088;4.746;2023-12-14T11:51:57;33.10;;;31.60;;
37495;SDS011;23346;52.088;4.746;2023-12-14T11:54:23;32.13;;;30.80;;
37495;SDS011;23346;52.088;4.746;2023-12-14T11:56:49;33.63;;;32.23;;
37495;SDS011;23346;52.088;4.746;2023-12-14T11:59:16;33.07;;;31.67;;
37495;SDS011;23346;52.088;4.746;2023-12-14T12:02:03;35.27;;;33.77;;
37495;SDS011;23346;52.088;4.746;2023-12-14T12:04:28;32.87;;;31.47;;
37495;SDS011;23346;52.088;4.746;2023-12-14T12:07:02;33.63;;;32.23;;
37495;SDS011;23346;52.088;4.746;2023-12-14T12:09:40;29.33;;;28.13;;
37495;SDS011;23346;52.088;4.746;2023-12-14T12:12:09;31.03;;;29.73;;
37495;SDS011;23346;52.088;4.746;2023-12-14T12:14:36;27.10;;;26.00;;
37495;SDS011;23346;52.088;4.746;2023-12-14T12:17:03;26.00;;;24.90;;
37495;SDS011;23346;52.088;4.746;2023-12-14T12:19:31;31.17;;;29.87;;
37495;SDS011;23346;52.088;4.746;2023-12-14T12:21:57;30.13;;;28.83;;
37495;SDS011;23346;52.088;4.746;2023-12-14T12:24:23;27.37;;;26.27;;
37495;SDS011;23346;52.088;4.746;2023-12-14T12:26:49;30.80;;;29.50;;
37495;SDS011;23346;52.088;4.746;2023-12-14T12:29:15;30.87;;;29.50;;
37495;SDS011;23346;52.088;4.746;2023-12-14T12:31:41;33.13;;;31.73;;
37495;SDS011;23346;52.088;4.746;2023-12-14T12:34:08;30.90;;;29.50;;
37495;SDS011;23346;52.088;4.746;2023-12-14T12:36:34;34.63;;;33.13;;
37495;SDS011;23346;52.088;4.746;2023-12-14T12:39:00;31.97;;;30.67;;
37495;SDS011;23346;52.088;4.746;2023-12-14T12:41:26;37.13;;;35.53;;
37495;SDS011;23346;52.088;4.746;2023-12-14T12:43:52;34.47;;;33.03;;
37495;SDS011;23346;52.088;4.746;2023-12-14T12:46:18;40.97;;;39.23;;
37495;SDS011;23346;52.088;4.746;2023-12-14T12:48:44;35.83;;;34.23;;
37495;SDS011;23346;52.088;4.746;2023-12-14T12:51:11;37.07;;;35.50;;
37495;SDS011;23346;52.088;4.746;2023-12-14T12:53:37;40.07;;;38.37;;
37495;SDS011;23346;52.088;4.746;2023-12-14T12:56:04;41.00;;;39.27;;
37495;SDS011;23346;52.088;4.746;2023-12-14T12:58:30;36.23;;;34.73;;
37495;SDS011;23346;52.088;4.746;2023-12-14T13:00:56;37.77;;;36.17;;
37495;SDS011;23346;52.088;4.746;2023-12-14T13:03:22;36.70;;;35.10;;
37495;SDS011;23346;52.088;4.746;2023-12-14T13:05:48;40.47;;;38.77;;
37495;SDS011;23346;52.088;4.746;2023-12-14T13:08:14;39.43;;;37.73;;
37495;SDS011;23346;52.088;4.746;2023-12-14T13:10:40;39.57;;;37.87;;
37495;SDS011;23346;52.088;4.746;2023-12-14T13:13:06;40.33;;;38.63;;
37495;SDS011;23346;52.088;4.746;2023-12-14T13:15:33;40.00;;;38.30;;
37495;SDS011;23346;52.088;4.746;2023-12-14T13:18:00;39.27;;;37.60;;
37495;SDS011;23346;52.088;4.746;2023-12-14T13:20:26;39.80;;;38.10;;
37495;SDS011;23346;52.088;4.746;2023-12-14T13:22:52;41.33;;;39.53;;
37495;SDS011;23346;52.088;4.746;2023-12-14T13:25:18;39.77;;;38.07;;
37495;SDS011;23346;52.088;4.746;2023-12-14T13:27:44;46.30;;;44.33;;
37495;SDS011;23346;52.088;4.746;2023-12-14T13:30:11;38.27;;;36.67;;
37495;SDS011;23346;52.088;4.746;2023-12-14T13:32:41;43.83;;;41.93;;
37495;SDS011;23346;52.088;4.746;2023-12-14T13:35:07;39.53;;;37.83;;
37495;SDS011;23346;52.088;4.746;2023-12-14T13:37:34;41.43;;;39.60;;
37495;SDS011;23346;52.088;4.746;2023-12-14T13:40:00;42.10;;;40.10;;
37495;SDS011;23346;52.088;4.746;2023-12-14T13:42:26;38.17;;;36.57;;
37495;SDS011;23346;52.088;4.746;2023-12-14T13:44:52;38.60;;;37.00;;
37495;SDS011;23346;52.088;4.746;2023-12-14T13:47:18;38.13;;;36.53;;
37495;SDS011;23346;52.088;4.746;2023-12-14T13:49:44;41.43;;;39.63;;
37495;SDS011;23346;52.088;4.746;2023-12-14T13:52:10;38.77;;;37.13;;
37495;SDS011;23346;52.088;4.746;2023-12-14T13:54:36;40.20;;;38.50;;
37495;SDS011;23346;52.088;4.746;2023-12-14T13:57:02;39.57;;;37.87;;
37495;SDS011;23346;52.088;4.746;2023-12-14T13:59:28;38.93;;;37.30;;
37495;SDS011;23346;52.088;4.746;2023-12-14T14:01:54;41.37;;;39.47;;
37495;SDS011;23346;52.088;4.746;2023-12-14T14:04:20;37.73;;;36.13;;
37495;SDS011;23346;52.088;4.746;2023-12-14T14:06:46;36.40;;;34.90;;
37495;SDS011;23346;52.088;4.746;2023-12-14T14:09:12;39.20;;;37.50;;
37495;SDS011;23346;52.088;4.746;2023-12-14T14:11:39;37.80;;;36.20;;